createdAt,value
2023-03-17T00:05:39.604Z,6
2023-03-17T00:15:45.955Z,4
2023-03-17T00:25:51.722Z,5
2023-03-17T00:35:58.574Z,4
2023-03-17T00:46:02.625Z,4
2023-03-17T00:56:08.044Z,3
2023-03-17T01:07:13.393Z,4
2023-03-17T01:17:05.923Z,5
2023-03-17T01:27:13.059Z,2
2023-03-17T08:34:26.554Z,4
2023-03-17T08:44:32.141Z,5
2023-03-17T08:54:37.697Z,4
2023-03-17T09:04:43.362Z,2
2023-03-17T09:14:49.231Z,2
2023-03-17T09:24:52.411Z,3
2023-03-17T09:34:58.582Z,3
2023-03-17T09:45:04.329Z,2
2023-03-17T09:55:08.976Z,3
2023-03-17T10:05:16.657Z,4
2023-03-17T10:15:25.835Z,11
2023-03-17T10:25:29.137Z,14
2023-03-17T10:35:35.585Z,13
2023-03-17T11:16:00.624Z,5
2023-03-17T11:56:27.899Z,15
2023-03-17T12:16:38.548Z,13
2023-03-17T12:26:44.481Z,11
2023-03-17T12:36:48.861Z,6
2023-03-17T12:46:55.664Z,11
2023-03-17T13:07:06.656Z,6
2023-03-17T13:27:17.727Z,3
2023-03-17T13:37:24.100Z,11
2023-03-17T13:47:31.613Z,6
2023-03-17T13:57:34.495Z,5
2023-03-17T14:07:40.956Z,6
2023-03-17T14:17:45.417Z,5
2023-03-17T14:27:51.103Z,12
2023-03-17T14:37:57.679Z,6
2023-03-17T14:48:05.761Z,6
2023-03-17T14:58:10.141Z,7
2023-03-17T15:08:15.014Z,5
2023-03-17T15:18:22.438Z,6
2023-03-17T15:28:28.840Z,6
2023-03-17T15:38:33.025Z,6
2023-03-17T15:48:40.039Z,8
2023-03-17T15:58:46.655Z,6
2023-03-17T16:08:52.340Z,7
2023-03-17T16:18:57.631Z,9
2023-03-17T16:29:05.606Z,9
2023-03-17T16:39:11.485Z,8
2023-03-17T16:49:18.195Z,10
2023-03-17T16:59:24.621Z,11
2023-03-17T17:09:31.752Z,10
2023-03-17T17:19:38.630Z,15
2023-03-17T17:29:44.034Z,10
2023-03-17T17:39:49.318Z,13
2023-03-17T17:49:54.798Z,16
2023-03-17T18:00:01.034Z,16
2023-03-17T18:10:07.761Z,18
2023-03-17T18:20:10.639Z,14
2023-03-17T18:30:16.463Z,14
2023-03-17T18:40:47.092Z,9
2023-03-17T18:50:40.840Z,7
2023-03-17T19:00:48.196Z,10
2023-03-17T19:10:55.337Z,9
2023-03-17T19:21:01.539Z,7
2023-03-17T19:31:07.677Z,9
2023-03-17T19:41:15.348Z,9
2023-03-17T19:51:20.841Z,9
2023-03-17T20:01:27.978Z,7
2023-03-17T20:11:34.783Z,7
2023-03-17T20:21:38.844Z,16
2023-03-17T20:31:43.226Z,9
2023-03-17T20:41:48.804Z,8
2023-03-17T20:51:54.513Z,10
2023-03-17T21:02:03.220Z,10
2023-03-17T21:12:06.624Z,14
2023-03-17T21:22:11.284Z,7
2023-03-17T21:32:18.587Z,7
2023-03-17T21:42:24.867Z,7
2023-03-17T21:52:29.632Z,10
2023-03-17T22:02:36.387Z,7
2023-03-17T22:12:42.645Z,7
2023-03-17T22:22:49.278Z,6
2023-03-17T22:32:57.304Z,7
2023-03-17T22:43:01.628Z,5
2023-03-17T22:53:06.815Z,6
2023-03-17T23:03:12.820Z,5
2023-03-17T23:13:17.916Z,16
2023-03-17T23:23:23.577Z,48
2023-03-17T23:33:31.184Z,50
2023-03-17T23:43:36.530Z,30
2023-03-17T23:53:40.908Z,39
